Leviticus — WDC2712 — position and weather

sailwx.info

Track history (hours):
 
Tides and Currents Weather Stations Pressure Air Temp Water Temp Dewpoint Dewpoint Depression Visibility Wind Speed Wind Dir Waves Ship Positions

Leviticus

Owner: Kirby Inland Marine, LP, Houston, TX. More information available from US FCC via Universal Licensing System and Coast Guard Vessel Documentation Center.

Last reported at 2016-Dec-07 13:12 UTC. Time now 2016-Dec-11 06:21 UTC.
Position N 32°37' W 091°09'.

Length 320 m; draft 2.7 m.

Type: . MMSI: 366996690.

Date/timePositionNaut miles runAvg speedWind from/ knotsBaromVisibWave heightAir tempDewpointWater temp
2016-Dec-07 13:12N 32°37' W 091°09'3 4.5
2016-Dec-07 12:33N 32°35' W 091°07'4 3.6
2016-Dec-07 11:21N 32°30' W 091°07'4 5.1
2016-Dec-07 10:33N 32°27' W 091°05'5 4.8
2016-Dec-07 09:33N 32°25' W 090°60'4 3.9
2016-Dec-07 08:33N 32°21' W 090°59'4 3.7
2016-Dec-07 07:33N 32°20' W 090°54'5 4.9
2016-Dec-07 06:33N 32°16' W 090°58'4 4.2
2016-Dec-07 05:33N 32°12' W 090°59'4 3.9
2016-Dec-07 04:33N 32°09' W 091°00'5 4.4
2016-Dec-07 03:29N 32°08' W 091°06'  
Track history (hours):
 
Tides and Currents Weather Stations Pressure Air Temp Water Temp Dewpoint Dewpoint Depression Visibility Wind Speed Wind Dir Waves Ship Positions

Leviticus

Owner: Kirby Inland Marine, LP, Houston, TX. More information available from US FCC via Universal Licensing System and Coast Guard Vessel Documentation Center.

Last reported at 2016-Dec-07 13:12 UTC. Time now 2016-Dec-11 06:21 UTC.
Position N 32°37' W 091°09'.

Length 320 m; draft 2.7 m.

Type: . MMSI: 366996690.

Date/timePositionNaut miles runAvg speedWind from/ knotsBaromVisibWave heightAir tempDewpointWater temp
2016-Dec-07 13:12N 32°37' W 091°09'3 4.5
2016-Dec-07 12:33N 32°35' W 091°07'4 3.6
2016-Dec-07 11:21N 32°30' W 091°07'4 5.1
2016-Dec-07 10:33N 32°27' W 091°05'5 4.8
2016-Dec-07 09:33N 32°25' W 090°60'4 3.9
2016-Dec-07 08:33N 32°21' W 090°59'4 3.7
2016-Dec-07 07:33N 32°20' W 090°54'5 4.9
2016-Dec-07 06:33N 32°16' W 090°58'4 4.2
2016-Dec-07 05:33N 32°12' W 090°59'4 3.9
2016-Dec-07 04:33N 32°09' W 091°00'5 4.4
2016-Dec-07 03:29N 32°08' W 091°06'  

Dump ship's entire track history